createdAt,value
2017-10-08T00:00:15.628Z,10.92
2017-10-08T00:00:56.208Z,10.93
2017-10-08T00:01:36.771Z,10.96
2017-10-08T00:02:17.335Z,10.9
2017-10-08T00:02:57.902Z,11.04
2017-10-08T00:03:38.495Z,11.07
2017-10-08T00:04:19.075Z,11.07
2017-10-08T00:04:59.707Z,11.02
2017-10-08T00:05:40.284Z,11.07
2017-10-08T00:06:20.887Z,11.08
2017-10-08T00:07:01.497Z,11.02
2017-10-08T00:07:42.105Z,11.08
2017-10-08T00:08:22.686Z,11.07
2017-10-08T00:09:03.288Z,11.07
2017-10-08T00:09:43.864Z,11.04
2017-10-08T00:10:24.433Z,11.1
2017-10-08T00:11:05.003Z,11.15
2017-10-08T00:11:45.580Z,11.05
2017-10-08T00:12:26.158Z,11.04
2017-10-08T00:13:06.719Z,11.08
2017-10-08T00:13:47.335Z,11.08
2017-10-08T00:14:27.951Z,11.02
2017-10-08T00:15:08.517Z,11.04
2017-10-08T00:15:49.102Z,11
2017-10-08T00:16:29.672Z,11.02
2017-10-08T00:17:10.272Z,11.04
2017-10-08T00:17:50.873Z,11.07
2017-10-08T00:18:31.461Z,11
2017-10-08T00:19:12.113Z,11.04
2017-10-08T00:19:52.679Z,11.07
2017-10-08T00:20:33.269Z,11
2017-10-08T00:21:13.829Z,11.07
2017-10-08T00:21:54.409Z,11.1
2017-10-08T00:22:34.969Z,11.1
2017-10-08T00:23:15.543Z,11
2017-10-08T00:23:56.151Z,11.04
2017-10-08T00:24:36.724Z,11.1
2017-10-08T00:25:17.315Z,11.12
2017-10-08T00:25:57.896Z,11.04
2017-10-08T00:26:38.469Z,11.02
2017-10-08T00:27:19.031Z,11.05
2017-10-08T00:27:59.625Z,11.1
2017-10-08T00:28:40.247Z,11.15
2017-10-08T00:29:20.868Z,11.05
2017-10-08T00:30:01.448Z,11.1
2017-10-08T00:30:42.032Z,11.05
2017-10-08T00:31:22.603Z,11.07
2017-10-08T00:32:03.173Z,11.08
2017-10-08T00:32:43.743Z,11.11
2017-10-08T00:33:24.339Z,11.07
2017-10-08T00:34:04.918Z,11.08
2017-10-08T00:34:45.510Z,11.07
2017-10-08T00:35:26.087Z,11.05
2017-10-08T00:36:06.649Z,11.07
2017-10-08T00:36:47.222Z,11.1
2017-10-08T00:37:27.780Z,11
2017-10-08T00:38:08.339Z,11.04
2017-10-08T00:38:48.902Z,11.05
2017-10-08T00:39:29.481Z,11.11
2017-10-08T00:40:10.057Z,11.14
2017-10-08T00:40:50.623Z,11.17
2017-10-08T00:41:31.193Z,11.1
2017-10-08T00:42:11.764Z,11.14
2017-10-08T00:42:52.348Z,11.18
2017-10-08T00:43:32.928Z,11.22
2017-10-08T00:44:13.590Z,11.08
2017-10-08T00:44:54.128Z,11.12
2017-10-08T00:45:34.714Z,11.12
2017-10-08T00:46:15.336Z,11.15
2017-10-08T00:46:55.942Z,11.18
2017-10-08T00:47:36.507Z,11.19
2017-10-08T00:48:17.101Z,11.12
2017-10-08T00:48:57.679Z,11.15
2017-10-08T00:49:38.304Z,11.18
2017-10-08T00:50:18.858Z,11.18
2017-10-08T00:50:59.439Z,11.15
2017-10-08T00:51:40.027Z,11.07
2017-10-08T00:52:20.620Z,11.18
2017-10-08T00:53:01.188Z,11.08
2017-10-08T00:53:41.847Z,11.15
2017-10-08T00:54:22.473Z,11.12
2017-10-08T00:55:03.174Z,11.26
2017-10-08T00:55:43.750Z,11.11
2017-10-08T00:56:24.360Z,11.15
2017-10-08T00:57:04.937Z,11.18
2017-10-08T00:57:45.514Z,11.08
2017-10-08T00:58:26.143Z,11.17
2017-10-08T00:59:06.724Z,11.22
2017-10-08T00:59:47.333Z,11.23
2017-10-08T01:00:27.929Z,11.14
2017-10-08T01:01:08.518Z,11.25
2017-10-08T01:01:49.096Z,11.26
2017-10-08T01:02:29.746Z,11.25
2017-10-08T01:03:10.334Z,11.23
2017-10-08T01:03:50.918Z,11.25
2017-10-08T01:04:31.487Z,11.25
2017-10-08T01:05:12.064Z,11.29
2017-10-08T01:05:52.632Z,11.22
2017-10-08T01:06:33.194Z,11.29
2017-10-08T01:07:13.776Z,11.19
2017-10-08T01:07:54.382Z,11.25
2017-10-08T01:08:34.940Z,11.17
2017-10-08T01:09:15.535Z,11.22
2017-10-08T01:09:56.131Z,11.26
2017-10-08T01:10:36.707Z,11.29
2017-10-08T01:11:17.290Z,11.26
2017-10-08T01:11:57.857Z,11.35
2017-10-08T01:12:38.433Z,11.23
2017-10-08T01:13:19.009Z,11.36
2017-10-08T01:13:59.595Z,11.3
2017-10-08T01:14:40.160Z,11.33
2017-10-08T01:15:20.753Z,11.35
2017-10-08T01:16:01.356Z,11.33
2017-10-08T01:16:41.976Z,11.35
2017-10-08T01:17:22.548Z,11.32
2017-10-08T01:18:03.169Z,11.35
2017-10-08T01:18:43.738Z,11.32
2017-10-08T01:19:24.344Z,11.35
2017-10-08T01:20:04.943Z,11.35
2017-10-08T01:20:45.564Z,11.32
2017-10-08T01:21:26.145Z,11.29
2017-10-08T01:22:06.789Z,11.32
2017-10-08T01:22:47.382Z,11.36
2017-10-08T01:23:27.961Z,11.35
2017-10-08T01:24:08.579Z,11.3
2017-10-08T01:24:49.168Z,11.3
2017-10-08T01:25:29.781Z,11.35
2017-10-08T01:26:10.390Z,11.3
2017-10-08T01:26:50.988Z,11.41
2017-10-08T01:27:31.590Z,11.37
2017-10-08T01:28:12.180Z,11.37
2017-10-08T01:28:52.793Z,11.41
2017-10-08T01:29:33.374Z,11.41
2017-10-08T01:30:13.973Z,11.4
2017-10-08T01:30:54.552Z,11.41
2017-10-08T01:31:35.139Z,11.41
2017-10-08T01:32:15.739Z,11.51
2017-10-08T01:32:56.344Z,11.52
2017-10-08T01:33:36.961Z,11.45
2017-10-08T01:34:17.554Z,11.51
2017-10-08T01:34:58.163Z,11.45
2017-10-08T01:35:38.758Z,11.5
2017-10-08T01:36:19.347Z,11.54
2017-10-08T01:36:59.970Z,11.48
2017-10-08T01:37:40.561Z,11.52
2017-10-08T01:38:21.155Z,11.48
2017-10-08T01:39:01.773Z,11.52
2017-10-08T01:39:42.413Z,11.54
2017-10-08T01:40:23.037Z,11.55
2017-10-08T01:41:03.614Z,11.59
2017-10-08T01:41:44.214Z,11.54
2017-10-08T01:42:24.806Z,11.52
2017-10-08T01:43:05.385Z,11.57
2017-10-08T01:43:45.966Z,11.62
2017-10-08T01:44:26.554Z,11.6
2017-10-08T01:45:07.136Z,11.57
2017-10-08T01:45:47.740Z,11.55
2017-10-08T01:46:28.336Z,11.55
2017-10-08T01:47:08.928Z,11.55
2017-10-08T01:47:49.557Z,11.51
2017-10-08T01:48:30.172Z,11.59
2017-10-08T01:49:10.774Z,11.57
2017-10-08T01:49:51.380Z,11.52
2017-10-08T01:50:31.956Z,11.52
2017-10-08T01:51:12.535Z,11.55
2017-10-08T01:51:53.127Z,11.52
2017-10-08T01:52:33.715Z,11.51
2017-10-08T01:53:14.301Z,11.59
2017-10-08T01:53:54.850Z,11.57
2017-10-08T01:54:35.426Z,11.5
2017-10-08T01:55:15.987Z,11.57
2017-10-08T01:55:56.561Z,11.51
2017-10-08T01:56:37.152Z,11.62
2017-10-08T01:57:17.751Z,11.55
2017-10-08T01:57:58.347Z,11.6
2017-10-08T01:58:38.943Z,11.57
2017-10-08T01:59:19.535Z,11.59
2017-10-08T02:00:00.108Z,11.6
2017-10-08T02:00:40.720Z,11.54
2017-10-08T02:01:21.288Z,11.55
2017-10-08T02:02:01.866Z,11.59
2017-10-08T02:02:42.485Z,11.57
2017-10-08T02:03:23.090Z,11.59
2017-10-08T02:04:03.705Z,11.54
2017-10-08T02:04:44.288Z,11.62
2017-10-08T02:05:24.968Z,11.63
2017-10-08T02:06:05.549Z,11.63
2017-10-08T02:06:46.139Z,11.65
2017-10-08T02:07:26.725Z,11.59
2017-10-08T02:08:07.284Z,11.59
2017-10-08T02:08:47.867Z,11.55
2017-10-08T02:09:28.443Z,11.62
2017-10-08T02:10:09.038Z,11.62
2017-10-08T02:10:49.641Z,11.59
2017-10-08T02:11:30.229Z,11.6
2017-10-08T02:12:10.826Z,11.6
2017-10-08T02:12:51.412Z,11.59
2017-10-08T02:13:31.982Z,11.54
2017-10-08T02:14:12.568Z,11.68
2017-10-08T02:14:53.129Z,11.65
2017-10-08T02:15:33.732Z,11.59
2017-10-08T02:16:14.312Z,11.54
2017-10-08T02:16:54.905Z,11.59
2017-10-08T02:17:35.500Z,11.65
2017-10-08T02:18:16.089Z,11.62
2017-10-08T02:18:56.681Z,11.6
2017-10-08T02:19:37.255Z,11.66
2017-10-08T02:20:17.826Z,11.62
2017-10-08T02:20:58.408Z,11.66
2017-10-08T02:21:39.000Z,11.69
2017-10-08T02:22:19.578Z,11.68
2017-10-08T02:23:00.180Z,11.68
2017-10-08T02:23:40.781Z,11.65
2017-10-08T02:24:21.357Z,11.63
2017-10-08T02:25:01.954Z,11.65
2017-10-08T02:25:42.535Z,11.69
2017-10-08T02:26:23.122Z,11.68
2017-10-08T02:27:03.701Z,11.72
2017-10-08T02:27:44.294Z,11.66
2017-10-08T02:28:24.854Z,11.63
2017-10-08T02:29:05.426Z,11.77
2017-10-08T02:29:46.035Z,11.66
2017-10-08T02:30:26.652Z,11.68
2017-10-08T02:31:07.221Z,11.75
2017-10-08T02:31:47.812Z,11.75
2017-10-08T02:32:28.389Z,11.69
2017-10-08T02:33:08.976Z,11.68
2017-10-08T02:33:49.617Z,11.73
2017-10-08T02:34:30.184Z,11.72
2017-10-08T02:35:10.756Z,11.77
2017-10-08T02:35:51.349Z,11.7
2017-10-08T02:36:31.948Z,11.65
2017-10-08T02:37:12.528Z,11.57
2017-10-08T02:37:53.142Z,11.75
2017-10-08T02:38:33.713Z,11.73
2017-10-08T02:39:14.313Z,11.72
2017-10-08T02:39:54.924Z,11.69
2017-10-08T02:40:35.503Z,11.63
2017-10-08T02:41:16.098Z,11.75
2017-10-08T02:41:56.654Z,11.68
2017-10-08T02:42:37.247Z,11.69
2017-10-08T02:43:17.836Z,11.73
2017-10-08T02:43:58.411Z,11.7
2017-10-08T02:44:38.998Z,11.83
2017-10-08T02:45:19.589Z,11.8
2017-10-08T02:46:00.169Z,11.73
2017-10-08T02:46:40.794Z,11.72
2017-10-08T02:47:21.392Z,11.75
2017-10-08T02:48:02.016Z,11.78
2017-10-08T02:48:42.589Z,11.77
2017-10-08T02:49:23.208Z,11.72
2017-10-08T02:50:03.770Z,11.77
2017-10-08T02:50:44.395Z,11.77
2017-10-08T02:51:24.955Z,11.75
2017-10-08T02:52:05.547Z,11.8
2017-10-08T02:52:46.156Z,11.84
2017-10-08T02:53:26.728Z,11.78
2017-10-08T02:54:07.359Z,11.77
2017-10-08T02:54:47.934Z,11.73
2017-10-08T02:55:28.485Z,11.75
2017-10-08T02:56:09.054Z,11.84
2017-10-08T02:56:49.689Z,11.75
2017-10-08T02:57:30.270Z,11.75
2017-10-08T02:58:10.852Z,11.73
2017-10-08T02:58:51.437Z,11.77
2017-10-08T02:59:32.028Z,11.77
2017-10-08T03:00:12.601Z,11.84
2017-10-08T03:00:53.203Z,11.81
2017-10-08T03:01:33.777Z,11.83
2017-10-08T03:02:14.356Z,11.88
2017-10-08T03:02:54.923Z,11.83
2017-10-08T03:03:35.499Z,11.78
2017-10-08T03:04:16.049Z,11.84
2017-10-08T03:04:56.635Z,11.81
2017-10-08T03:05:37.213Z,11.8
2017-10-08T03:06:17.802Z,11.81
2017-10-08T03:06:58.394Z,11.81
2017-10-08T03:07:38.965Z,11.81
2017-10-08T03:08:19.525Z,11.83
2017-10-08T03:09:00.082Z,11.84
2017-10-08T03:09:40.665Z,11.83
2017-10-08T03:10:21.249Z,11.81
2017-10-08T03:11:01.859Z,11.8
2017-10-08T03:11:42.430Z,11.8
2017-10-08T03:12:23.033Z,11.86
2017-10-08T03:13:03.621Z,11.84
2017-10-08T03:13:44.192Z,11.81
2017-10-08T03:14:24.768Z,11.83
2017-10-08T03:15:05.351Z,11.84
2017-10-08T03:15:45.941Z,11.88
2017-10-08T03:16:26.493Z,11.87
2017-10-08T03:17:07.070Z,11.87
2017-10-08T03:17:47.656Z,11.84
2017-10-08T03:18:28.241Z,11.81
2017-10-08T03:19:08.822Z,11.87
2017-10-08T03:19:49.420Z,11.87
2017-10-08T03:20:29.990Z,11.88
2017-10-08T03:21:10.561Z,11.83
2017-10-08T03:21:51.136Z,11.87
2017-10-08T03:22:31.705Z,11.95
2017-10-08T03:23:12.279Z,11.81
2017-10-08T03:23:52.843Z,11.91
2017-10-08T03:24:33.414Z,11.91
2017-10-08T03:25:13.991Z,11.9
2017-10-08T03:25:54.577Z,11.94
2017-10-08T03:26:35.140Z,11.91
2017-10-08T03:27:15.731Z,11.91
2017-10-08T03:27:56.361Z,11.97
2017-10-08T03:28:36.940Z,11.88
2017-10-08T03:29:17.496Z,11.9
2017-10-08T03:29:58.071Z,11.95
2017-10-08T03:30:38.694Z,12
2017-10-08T03:31:19.259Z,11.97
2017-10-08T03:31:59.826Z,11.87
2017-10-08T03:32:40.439Z,12.04
2017-10-08T03:33:21.016Z,12.02
2017-10-08T03:34:01.639Z,12
2017-10-08T03:34:42.199Z,11.97
2017-10-08T03:35:22.768Z,12.06
2017-10-08T03:36:03.338Z,12.03
2017-10-08T03:36:43.957Z,12.02
2017-10-08T03:37:24.527Z,12.07
2017-10-08T03:38:05.157Z,12.03
2017-10-08T03:38:45.759Z,11.97
2017-10-08T03:39:26.321Z,12.09
2017-10-08T03:40:06.922Z,12.02
2017-10-08T03:40:47.571Z,12.13
2017-10-08T03:41:28.156Z,12.03
2017-10-08T03:42:08.767Z,12.02
2017-10-08T03:42:49.355Z,12.03
2017-10-08T03:43:30.070Z,12
2017-10-08T03:44:10.661Z,12.09
2017-10-08T03:44:51.250Z,12.17
2017-10-08T03:45:31.832Z,12.12
2017-10-08T03:46:12.482Z,12.07
2017-10-08T03:46:53.068Z,12.17
2017-10-08T03:47:33.705Z,12.13
2017-10-08T03:48:14.309Z,12.13
2017-10-08T03:48:54.886Z,12.09
2017-10-08T03:49:35.540Z,12.06
2017-10-08T03:50:16.123Z,12.15
2017-10-08T03:50:56.722Z,12.12
2017-10-08T03:51:37.301Z,12.12
2017-10-08T03:52:17.897Z,12.02
2017-10-08T03:52:58.504Z,12.12
2017-10-08T03:53:39.085Z,12.13
2017-10-08T03:54:19.711Z,12.1
2017-10-08T03:55:00.290Z,12.1
2017-10-08T03:55:40.942Z,12.13
2017-10-08T03:56:21.565Z,12.24
2017-10-08T03:57:02.175Z,12.15
2017-10-08T03:57:42.746Z,12.15
2017-10-08T03:58:23.318Z,12.13
2017-10-08T03:59:03.917Z,12.13
2017-10-08T03:59:44.490Z,12.15
2017-10-08T04:00:25.058Z,12.15
2017-10-08T04:01:05.618Z,12.09
2017-10-08T04:01:46.204Z,12.12
2017-10-08T04:02:26.778Z,12.22
2017-10-08T04:03:07.367Z,12.2
2017-10-08T04:03:47.947Z,12.09
2017-10-08T04:04:28.529Z,12.13
2017-10-08T04:05:09.144Z,12.2
2017-10-08T04:05:49.798Z,12.1
2017-10-08T04:06:30.386Z,12.18
2017-10-08T04:07:10.982Z,12.2
2017-10-08T04:07:51.592Z,12.1
2017-10-08T04:08:32.248Z,12.13
2017-10-08T04:09:12.848Z,12.15
2017-10-08T04:09:53.436Z,12.13
2017-10-08T04:10:34.003Z,12.17
2017-10-08T04:11:14.572Z,12.12
2017-10-08T04:11:55.173Z,12.13
2017-10-08T04:12:35.821Z,12.13
2017-10-08T04:13:16.383Z,12.12
2017-10-08T04:13:56.964Z,12.13
2017-10-08T04:14:37.585Z,12.17
2017-10-08T04:15:18.156Z,12.2
2017-10-08T04:15:58.724Z,12.17
2017-10-08T04:16:39.326Z,12.24
2017-10-08T04:17:19.898Z,12.18
2017-10-08T04:18:00.546Z,12.2
2017-10-08T04:18:41.175Z,12.22
2017-10-08T04:19:21.761Z,12.13
2017-10-08T04:20:02.342Z,12.24
2017-10-08T04:20:42.930Z,12.24
2017-10-08T04:21:23.513Z,12.22
2017-10-08T04:22:04.090Z,12.27
2017-10-08T04:22:44.747Z,12.18
2017-10-08T04:23:25.540Z,12.17
2017-10-08T04:24:06.108Z,12.18
2017-10-08T04:24:46.683Z,12.22
2017-10-08T04:25:27.261Z,12.21
2017-10-08T04:26:07.853Z,12.2
2017-10-08T04:26:48.435Z,12.24
2017-10-08T04:27:29.040Z,12.21
2017-10-08T04:28:09.637Z,12.27
2017-10-08T04:28:50.303Z,12.28
2017-10-08T04:29:30.876Z,12.17
2017-10-08T04:30:11.457Z,12.24
2017-10-08T04:30:52.040Z,12.24
2017-10-08T04:31:32.671Z,12.24
2017-10-08T04:32:13.246Z,12.27
2017-10-08T04:32:53.835Z,12.24
2017-10-08T04:33:34.430Z,12.25
2017-10-08T04:34:15.022Z,12.24
2017-10-08T04:34:55.608Z,12.35
2017-10-08T04:35:36.187Z,12.32
2017-10-08T04:36:16.753Z,12.39
2017-10-08T04:36:57.345Z,12.31
2017-10-08T04:37:37.937Z,12.29
2017-10-08T04:38:18.592Z,12.32
2017-10-08T04:38:59.166Z,12.35
2017-10-08T04:39:39.760Z,12.36
2017-10-08T04:40:20.345Z,12.35
2017-10-08T04:41:00.928Z,12.35
2017-10-08T04:41:41.586Z,12.25
2017-10-08T04:42:22.140Z,12.25
2017-10-08T04:43:02.747Z,12.31
2017-10-08T04:43:43.349Z,12.37
2017-10-08T04:44:23.944Z,12.36
2017-10-08T04:45:04.552Z,12.32
2017-10-08T04:45:45.130Z,12.36
2017-10-08T04:46:25.732Z,12.24
2017-10-08T04:47:06.351Z,12.31
2017-10-08T04:47:46.949Z,12.22
2017-10-08T04:48:27.548Z,12.35
2017-10-08T04:49:08.111Z,12.27
2017-10-08T04:49:48.690Z,12.22
2017-10-08T04:50:29.280Z,12.22
2017-10-08T04:51:09.888Z,12.22
2017-10-08T04:51:50.534Z,12.2
2017-10-08T04:52:31.161Z,12.28
2017-10-08T04:53:11.749Z,12.25
2017-10-08T04:53:52.341Z,12.24
2017-10-08T04:54:32.944Z,12.27
2017-10-08T04:55:13.507Z,12.25
2017-10-08T04:55:54.096Z,12.21
2017-10-08T04:56:34.694Z,12.2
2017-10-08T04:57:15.285Z,12.2
2017-10-08T04:57:55.891Z,12.2
2017-10-08T04:58:36.485Z,12.28
2017-10-08T04:59:17.080Z,12.22
2017-10-08T04:59:57.677Z,12.22
2017-10-08T05:00:38.320Z,12.22
2017-10-08T05:01:18.936Z,12.22
2017-10-08T05:01:59.497Z,12.22
2017-10-08T05:02:40.125Z,12.24
2017-10-08T05:03:20.728Z,12.22
2017-10-08T05:04:01.313Z,12.32
2017-10-08T05:04:41.901Z,12.27
2017-10-08T05:05:22.519Z,12.32
2017-10-08T05:06:03.104Z,12.31
2017-10-08T05:06:43.690Z,12.29
2017-10-08T05:07:24.263Z,12.32
2017-10-08T05:08:04.854Z,12.21
2017-10-08T05:08:45.477Z,12.36
2017-10-08T05:09:26.053Z,12.35
2017-10-08T05:10:06.657Z,12.25
2017-10-08T05:10:47.279Z,12.18
2017-10-08T05:11:27.921Z,12.24
2017-10-08T05:12:08.561Z,12.2
2017-10-08T05:12:49.161Z,12.25
2017-10-08T05:13:29.755Z,12.27
2017-10-08T05:14:10.379Z,12.12
2017-10-08T05:14:50.951Z,12.18
2017-10-08T05:15:31.543Z,12.12
2017-10-08T05:16:12.118Z,12.12
2017-10-08T05:16:52.727Z,12.09
2017-10-08T05:17:33.335Z,11.97
2017-10-08T05:18:13.939Z,12.07
2017-10-08T05:18:54.524Z,12.02
2017-10-08T05:19:35.143Z,12
2017-10-08T05:20:15.727Z,12.03
2017-10-08T05:20:56.323Z,12.02
2017-10-08T05:21:36.938Z,11.95
2017-10-08T05:22:17.547Z,12.03
2017-10-08T05:22:58.146Z,12.07
2017-10-08T05:23:38.745Z,11.91
2017-10-08T05:24:19.356Z,12.06
2017-10-08T05:24:59.974Z,12.06
2017-10-08T05:25:40.622Z,11.87
2017-10-08T05:26:21.200Z,11.91
2017-10-08T05:27:01.785Z,12.04
2017-10-08T05:27:42.367Z,11.9
2017-10-08T05:28:22.951Z,11.95
2017-10-08T05:29:03.586Z,11.95
2017-10-08T05:29:44.180Z,11.9
2017-10-08T05:30:24.773Z,11.91
2017-10-08T05:31:05.373Z,11.99
2017-10-08T05:31:45.972Z,12
2017-10-08T05:32:26.534Z,11.97
2017-10-08T05:33:07.124Z,11.94
2017-10-08T05:33:47.685Z,11.94
2017-10-08T05:34:28.266Z,12
2017-10-08T05:35:08.870Z,11.94
2017-10-08T05:35:49.429Z,12
2017-10-08T05:36:29.981Z,11.97
2017-10-08T05:37:10.601Z,11.91
2017-10-08T05:37:51.190Z,11.95
2017-10-08T05:38:31.780Z,11.95
2017-10-08T05:39:12.375Z,12
2017-10-08T05:39:52.940Z,12.03
2017-10-08T05:40:33.520Z,12.06
2017-10-08T05:41:14.092Z,11.95
2017-10-08T05:41:54.686Z,12
2017-10-08T05:42:35.287Z,11.9
2017-10-08T05:43:15.906Z,11.91
2017-10-08T05:43:56.508Z,11.95
2017-10-08T05:44:37.070Z,11.91
2017-10-08T05:45:17.668Z,11.94
2017-10-08T05:45:58.263Z,11.91
2017-10-08T05:46:38.819Z,11.97
2017-10-08T05:47:19.390Z,11.99
2017-10-08T05:47:59.982Z,11.95
2017-10-08T05:48:40.571Z,11.86
2017-10-08T05:49:21.166Z,11.9
2017-10-08T05:50:01.777Z,11.91
2017-10-08T05:50:42.361Z,11.81
2017-10-08T05:51:22.979Z,11.91
2017-10-08T05:52:03.565Z,11.86
2017-10-08T05:52:44.200Z,11.83
2017-10-08T05:53:24.830Z,11.83
2017-10-08T05:54:05.436Z,11.99
2017-10-08T05:54:46.034Z,11.99
2017-10-08T05:55:27.061Z,11.81
2017-10-08T05:56:07.657Z,11.86
2017-10-08T05:56:48.221Z,11.95
2017-10-08T05:57:28.869Z,11.91
2017-10-08T05:58:09.636Z,11.87
2017-10-08T05:58:50.771Z,11.91
2017-10-08T05:59:31.336Z,11.97
2017-10-08T06:00:12.155Z,11.91
2017-10-08T06:00:53.854Z,11.97
2017-10-08T06:01:34.958Z,11.95
2017-10-08T06:02:15.896Z,11.97
2017-10-08T06:02:56.925Z,11.9
2017-10-08T06:03:37.587Z,11.95
2017-10-08T06:04:18.182Z,11.97
2017-10-08T06:04:58.770Z,11.94
2017-10-08T06:05:39.333Z,11.88
2017-10-08T06:06:19.917Z,11.94
2017-10-08T06:07:00.488Z,11.94
2017-10-08T06:07:41.058Z,11.9
2017-10-08T06:08:21.690Z,12
2017-10-08T06:09:02.890Z,12.17
2017-10-08T06:09:43.496Z,12.25
2017-10-08T06:10:24.056Z,12.31
2017-10-08T06:11:04.952Z,12.42
2017-10-08T06:11:45.554Z,12.46
2017-10-08T06:12:26.188Z,12.58
2017-10-08T06:13:06.774Z,12.61
2017-10-08T06:13:47.371Z,12.64
2017-10-08T06:14:28.416Z,12.65
2017-10-08T06:15:09.099Z,12.73
2017-10-08T06:15:49.688Z,12.76
2017-10-08T06:16:30.279Z,12.76
2017-10-08T06:17:10.869Z,12.7
2017-10-08T06:17:51.468Z,12.82
2017-10-08T06:18:32.073Z,12.8
2017-10-08T06:19:12.646Z,12.86
2017-10-08T06:19:53.880Z,12.83
2017-10-08T06:20:38.420Z,12.8
2017-10-08T06:21:19.131Z,12.79
2017-10-08T06:21:59.819Z,12.7
2017-10-08T06:22:41.529Z,12.68
2017-10-08T06:23:23.148Z,12.68
2017-10-08T06:24:04.210Z,12.73
2017-10-08T06:24:45.325Z,12.82
2017-10-08T06:25:27.396Z,12.91
2017-10-08T06:26:07.961Z,12.95
2017-10-08T06:26:48.539Z,13.03
2017-10-08T06:27:29.106Z,12.97
2017-10-08T06:28:09.663Z,13
2017-10-08T06:28:50.233Z,13.05
2017-10-08T06:29:33.010Z,12.98
2017-10-08T06:30:13.585Z,13.01
2017-10-08T06:30:54.203Z,12.97
2017-10-08T06:31:34.811Z,12.93
2017-10-08T06:32:15.407Z,12.98
2017-10-08T06:32:55.973Z,13.01
2017-10-08T06:33:36.545Z,13
2017-10-08T06:34:17.124Z,13.08
2017-10-08T06:34:57.689Z,13.01
2017-10-08T06:35:38.261Z,13.03
2017-10-08T06:36:18.832Z,12.98
2017-10-08T06:36:59.434Z,12.98
2017-10-08T06:37:40.016Z,12.98
2017-10-08T06:38:20.609Z,13.05
2017-10-08T06:39:01.235Z,13.08
2017-10-08T06:39:41.845Z,13.09
2017-10-08T06:40:22.420Z,13.08
2017-10-08T06:41:03.036Z,13.03
2017-10-08T06:41:43.636Z,12.94
2017-10-08T06:42:24.237Z,12.95
2017-10-08T06:43:04.838Z,13.05
2017-10-08T06:43:45.445Z,13.05
2017-10-08T06:44:26.059Z,13.16
2017-10-08T06:45:06.654Z,13.19
2017-10-08T06:45:47.245Z,13.16
2017-10-08T06:46:27.844Z,13.11
2017-10-08T06:47:08.403Z,13.11
2017-10-08T06:47:49.026Z,13.08
2017-10-08T06:48:29.668Z,13.04
2017-10-08T06:49:10.255Z,13.03
2017-10-08T06:49:50.829Z,12.97
2017-10-08T06:50:31.400Z,12.9
2017-10-08T06:51:11.991Z,12.93
2017-10-08T06:51:52.574Z,12.85
2017-10-08T06:52:33.215Z,12.83
2017-10-08T06:53:13.844Z,12.86
2017-10-08T06:53:54.423Z,12.72
2017-10-08T06:54:35.049Z,12.73
2017-10-08T06:55:15.629Z,12.78
2017-10-08T06:55:56.239Z,12.68
2017-10-08T06:56:36.811Z,12.58
2017-10-08T06:57:17.477Z,12.62
2017-10-08T06:57:58.042Z,12.6
2017-10-08T06:58:38.618Z,12.64
2017-10-08T06:59:19.214Z,12.6
2017-10-08T06:59:59.822Z,12.57
2017-10-08T07:00:40.451Z,12.5
2017-10-08T07:01:21.047Z,12.46
2017-10-08T07:02:01.621Z,12.54
2017-10-08T07:02:42.217Z,12.49
2017-10-08T07:03:22.791Z,12.5
2017-10-08T07:04:03.374Z,12.43
2017-10-08T07:04:43.932Z,12.39
2017-10-08T07:05:24.531Z,12.39
2017-10-08T07:06:05.137Z,12.46
2017-10-08T07:06:47.349Z,12.37
2017-10-08T07:07:29.154Z,12.45
2017-10-08T07:08:09.754Z,12.35
2017-10-08T07:08:50.364Z,12.39
2017-10-08T07:09:30.955Z,12.39
2017-10-08T07:10:12.173Z,12.27
2017-10-08T07:10:52.938Z,12.35
2017-10-08T07:11:33.487Z,12.28
2017-10-08T07:12:14.341Z,12.35
2017-10-08T07:12:54.980Z,12.31
2017-10-08T07:13:37.858Z,12.32
2017-10-08T07:14:18.406Z,12.27
2017-10-08T07:14:59.018Z,12.31
2017-10-08T07:15:40.134Z,12.32
2017-10-08T07:16:21.066Z,12.31
2017-10-08T07:17:04.334Z,12.35
2017-10-08T07:17:45.327Z,12.29
2017-10-08T07:18:28.311Z,12.35
2017-10-08T07:19:08.934Z,12.29
2017-10-08T07:19:49.521Z,12.36
2017-10-08T07:20:30.620Z,12.25
2017-10-08T07:21:11.201Z,12.31
2017-10-08T07:21:52.836Z,12.25
2017-10-08T07:22:33.547Z,12.35
2017-10-08T07:23:14.209Z,12.24
2017-10-08T07:23:54.770Z,12.25
2017-10-08T07:24:35.342Z,12.24
2017-10-08T07:25:15.940Z,12.21
2017-10-08T07:25:56.519Z,12.21
2017-10-08T07:26:37.148Z,12.27
2017-10-08T07:27:17.727Z,12.21
2017-10-08T07:27:58.344Z,12.22
2017-10-08T07:28:38.934Z,12.32
2017-10-08T07:29:19.517Z,12.29
2017-10-08T07:30:00.087Z,12.29
2017-10-08T07:30:40.662Z,12.32
2017-10-08T07:31:21.254Z,12.32
2017-10-08T07:32:01.842Z,12.35
2017-10-08T07:32:42.422Z,12.31
2017-10-08T07:33:23.067Z,12.37
2017-10-08T07:34:03.644Z,12.37
2017-10-08T07:34:44.210Z,12.27
2017-10-08T07:35:24.784Z,12.18
2017-10-08T07:36:05.371Z,12.29
2017-10-08T07:36:45.946Z,12.31
2017-10-08T07:37:26.525Z,12.29
2017-10-08T07:38:07.177Z,12.39
2017-10-08T07:38:47.778Z,12.43
2017-10-08T07:39:29.276Z,12.46
2017-10-08T07:40:09.867Z,12.4
2017-10-08T07:40:50.451Z,12.43
2017-10-08T07:41:31.010Z,12.47
2017-10-08T07:42:11.605Z,12.45
2017-10-08T07:42:52.264Z,12.39
2017-10-08T07:43:32.853Z,12.49
2017-10-08T07:44:13.443Z,12.39
2017-10-08T07:44:54.037Z,12.4
2017-10-08T07:45:34.667Z,12.42
2017-10-08T07:46:15.245Z,12.49
2017-10-08T07:46:55.879Z,12.37
2017-10-08T07:47:36.492Z,12.45
2017-10-08T07:48:17.038Z,12.39
2017-10-08T07:48:57.653Z,12.46
2017-10-08T07:49:38.225Z,12.39
2017-10-08T07:50:18.803Z,12.43
2017-10-08T07:50:59.378Z,12.47
2017-10-08T07:51:40.048Z,12.42
2017-10-08T07:52:20.658Z,12.45
2017-10-08T07:53:01.229Z,12.45
2017-10-08T07:53:41.823Z,12.45
2017-10-08T07:54:22.593Z,12.42
2017-10-08T07:55:03.068Z,12.49
2017-10-08T07:55:43.663Z,12.46
2017-10-08T07:56:24.274Z,12.37
2017-10-08T07:57:04.856Z,12.37
2017-10-08T07:57:45.471Z,12.35
2017-10-08T07:58:26.095Z,12.47
2017-10-08T07:59:06.692Z,12.42
2017-10-08T07:59:47.267Z,12.37
2017-10-08T08:00:27.986Z,12.4
2017-10-08T08:01:08.571Z,12.45
2017-10-08T08:01:49.139Z,12.5
2017-10-08T08:02:29.731Z,12.46
2017-10-08T08:03:10.305Z,12.46
2017-10-08T08:03:50.949Z,12.46
2017-10-08T08:04:31.521Z,12.47
2017-10-08T08:05:12.106Z,12.46
2017-10-08T08:05:52.706Z,12.49
2017-10-08T08:06:33.280Z,12.54
2017-10-08T08:07:13.864Z,12.53
2017-10-08T08:07:54.450Z,12.47
2017-10-08T08:08:35.044Z,12.55
2017-10-08T08:09:15.633Z,12.58
2017-10-08T08:09:56.205Z,12.54
2017-10-08T08:10:36.780Z,12.57
2017-10-08T08:11:17.362Z,12.55
2017-10-08T08:11:57.934Z,12.58
2017-10-08T08:12:38.525Z,12.57
2017-10-08T08:13:19.109Z,12.64
2017-10-08T08:13:59.695Z,12.6
2017-10-08T08:14:40.311Z,12.75
2017-10-08T08:15:20.963Z,12.7
2017-10-08T08:16:01.812Z,12.76
2017-10-08T08:16:42.870Z,12.73
2017-10-08T08:17:24.077Z,12.68
2017-10-08T08:18:05.196Z,12.73
2017-10-08T08:18:45.996Z,12.61
2017-10-08T08:19:26.768Z,12.67
2017-10-08T08:20:07.752Z,12.57
2017-10-08T08:20:48.368Z,12.61
2017-10-08T08:21:28.997Z,12.62
2017-10-08T08:22:09.594Z,12.6
2017-10-08T08:22:50.837Z,12.62
2017-10-08T08:23:31.450Z,12.72
2017-10-08T08:24:12.060Z,12.54
2017-10-08T08:24:52.799Z,12.62
2017-10-08T08:25:33.405Z,12.73
2017-10-08T08:26:13.963Z,12.62
2017-10-08T08:26:54.554Z,12.75
2017-10-08T08:27:35.145Z,12.75
2017-10-08T08:28:15.740Z,12.73
2017-10-08T08:28:56.345Z,12.76
2017-10-08T08:29:36.961Z,12.73
2017-10-08T08:30:17.542Z,12.75
2017-10-08T08:30:58.156Z,12.79
2017-10-08T08:31:38.767Z,12.68
2017-10-08T08:32:19.342Z,12.76
2017-10-08T08:32:59.941Z,12.75
2017-10-08T08:33:40.544Z,12.79
2017-10-08T08:34:23.687Z,12.75
2017-10-08T08:35:04.322Z,12.75
2017-10-08T08:35:45.044Z,12.75
2017-10-08T08:36:25.641Z,12.73
2017-10-08T08:37:06.247Z,12.7
2017-10-08T08:37:46.836Z,12.7
2017-10-08T08:38:27.435Z,12.78
2017-10-08T08:39:08.014Z,12.72
2017-10-08T08:39:48.585Z,12.79
2017-10-08T08:40:29.160Z,12.73
2017-10-08T08:41:09.748Z,12.75
2017-10-08T08:41:50.342Z,12.8
2017-10-08T08:42:30.972Z,12.75
2017-10-08T08:43:11.580Z,12.7
2017-10-08T08:43:52.170Z,12.79
2017-10-08T08:44:32.774Z,12.85
2017-10-08T08:45:13.367Z,13.01
2017-10-08T08:45:54.109Z,13.04